sensor_id;sensor_type;location;lat;lon;timestamp;P1;durP1;ratioP1;P2;durP2;ratioP2
30378;SDS011;17168;49.164;9.060;2022-07-30T00:00:11;8.60;;;3.33;;
30378;SDS011;17168;49.164;9.060;2022-07-30T00:02:49;4.75;;;3.42;;
30378;SDS011;17168;49.164;9.060;2022-07-30T00:05:16;4.20;;;3.03;;
30378;SDS011;17168;49.164;9.060;2022-07-30T00:07:44;7.43;;;3.20;;
30378;SDS011;17168;49.164;9.060;2022-07-30T00:10:11;3.30;;;3.00;;
30378;SDS011;17168;49.164;9.060;2022-07-30T00:12:38;5.15;;;3.10;;
30378;SDS011;17168;49.164;9.060;2022-07-30T00:15:05;4.38;;;2.80;;
30378;SDS011;17168;49.164;9.060;2022-07-30T00:17:33;3.60;;;3.05;;
30378;SDS011;17168;49.164;9.060;2022-07-30T00:20:00;5.43;;;3.28;;
30378;SDS011;17168;49.164;9.060;2022-07-30T00:22:28;5.82;;;3.60;;
30378;SDS011;17168;49.164;9.060;2022-07-30T00:24:57;6.75;;;3.60;;
30378;SDS011;17168;49.164;9.060;2022-07-30T00:27:24;6.20;;;3.80;;
30378;SDS011;17168;49.164;9.060;2022-07-30T00:29:51;5.95;;;3.92;;
30378;SDS011;17168;49.164;9.060;2022-07-30T00:32:18;7.10;;;3.70;;
30378;SDS011;17168;49.164;9.060;2022-07-30T00:34:45;6.80;;;3.75;;
30378;SDS011;17168;49.164;9.060;2022-07-30T00:37:12;6.55;;;4.03;;
30378;SDS011;17168;49.164;9.060;2022-07-30T00:39:38;5.05;;;3.50;;
30378;SDS011;17168;49.164;9.060;2022-07-30T00:42:07;4.97;;;3.60;;
30378;SDS011;17168;49.164;9.060;2022-07-30T00:44:33;3.78;;;3.10;;
30378;SDS011;17168;49.164;9.060;2022-07-30T00:47:00;4.72;;;3.75;;
30378;SDS011;17168;49.164;9.060;2022-07-30T00:49:28;4.80;;;3.40;;
30378;SDS011;17168;49.164;9.060;2022-07-30T00:51:55;5.50;;;3.20;;
30378;SDS011;17168;49.164;9.060;2022-07-30T00:54:22;4.00;;;3.47;;
30378;SDS011;17168;49.164;9.060;2022-07-30T00:56:49;3.22;;;2.92;;
30378;SDS011;17168;49.164;9.060;2022-07-30T00:59:17;7.18;;;3.10;;
30378;SDS011;17168;49.164;9.060;2022-07-30T01:01:44;3.72;;;3.13;;
30378;SDS011;17168;49.164;9.060;2022-07-30T01:04:11;4.28;;;3.13;;
30378;SDS011;17168;49.164;9.060;2022-07-30T01:06:38;3.53;;;3.00;;
30378;SDS011;17168;49.164;9.060;2022-07-30T01:09:05;4.47;;;3.00;;
30378;SDS011;17168;49.164;9.060;2022-07-30T01:11:34;4.03;;;3.40;;
30378;SDS011;17168;49.164;9.060;2022-07-30T01:14:03;5.80;;;3.25;;
30378;SDS011;17168;49.164;9.060;2022-07-30T01:16:32;3.92;;;3.10;;
30378;SDS011;17168;49.164;9.060;2022-07-30T01:18:59;5.07;;;4.07;;
30378;SDS011;17168;49.164;9.060;2022-07-30T01:21:53;4.85;;;3.13;;
30378;SDS011;17168;49.164;9.060;2022-07-30T01:24:26;6.10;;;3.50;;
30378;SDS011;17168;49.164;9.060;2022-07-30T01:26:59;4.25;;;3.63;;
30378;SDS011;17168;49.164;9.060;2022-07-30T01:29:29;4.57;;;3.80;;
30378;SDS011;17168;49.164;9.060;2022-07-30T01:31:58;5.90;;;3.70;;
30378;SDS011;17168;49.164;9.060;2022-07-30T01:34:26;4.38;;;3.70;;
30378;SDS011;17168;49.164;9.060;2022-07-30T01:36:55;5.43;;;3.88;;
30378;SDS011;17168;49.164;9.060;2022-07-30T01:39:24;4.07;;;3.67;;
30378;SDS011;17168;49.164;9.060;2022-07-30T01:41:52;5.07;;;3.45;;
30378;SDS011;17168;49.164;9.060;2022-07-30T01:44:22;5.55;;;4.28;;
30378;SDS011;17168;49.164;9.060;2022-07-30T01:46:51;4.90;;;4.40;;
30378;SDS011;17168;49.164;9.060;2022-07-30T01:49:20;5.60;;;3.60;;
30378;SDS011;17168;49.164;9.060;2022-07-30T01:51:49;7.43;;;4.07;;
30378;SDS011;17168;49.164;9.060;2022-07-30T01:54:17;6.18;;;4.15;;
30378;SDS011;17168;49.164;9.060;2022-07-30T01:56:44;5.53;;;4.13;;
30378;SDS011;17168;49.164;9.060;2022-07-30T01:59:13;5.47;;;4.45;;
30378;SDS011;17168;49.164;9.060;2022-07-30T02:01:44;6.93;;;4.38;;
30378;SDS011;17168;49.164;9.060;2022-07-30T02:04:11;4.60;;;4.20;;
30378;SDS011;17168;49.164;9.060;2022-07-30T02:06:40;7.45;;;4.45;;
30378;SDS011;17168;49.164;9.060;2022-07-30T02:09:09;8.70;;;4.20;;
30378;SDS011;17168;49.164;9.060;2022-07-30T02:11:42;8.30;;;4.05;;
30378;SDS011;17168;49.164;9.060;2022-07-30T02:14:29;9.68;;;4.28;;
30378;SDS011;17168;49.164;9.060;2022-07-30T02:17:08;7.30;;;4.18;;
30378;SDS011;17168;49.164;9.060;2022-07-30T02:19:44;10.63;;;4.30;;
30378;SDS011;17168;49.164;9.060;2022-07-30T02:22:14;4.80;;;3.90;;
30378;SDS011;17168;49.164;9.060;2022-07-30T02:24:44;6.93;;;4.70;;
30378;SDS011;17168;49.164;9.060;2022-07-30T02:27:13;6.35;;;4.20;;
30378;SDS011;17168;49.164;9.060;2022-07-30T02:29:43;6.50;;;3.63;;
30378;SDS011;17168;49.164;9.060;2022-07-30T02:32:14;7.68;;;4.15;;
30378;SDS011;17168;49.164;9.060;2022-07-30T02:34:45;4.22;;;3.47;;
30378;SDS011;17168;49.164;9.060;2022-07-30T02:37:16;4.97;;;3.55;;
30378;SDS011;17168;49.164;9.060;2022-07-30T02:40:09;4.03;;;3.42;;
30378;SDS011;17168;49.164;9.060;2022-07-30T02:42:39;7.20;;;4.10;;
30378;SDS011;17168;49.164;9.060;2022-07-30T02:45:08;5.28;;;4.13;;
30378;SDS011;17168;49.164;9.060;2022-07-30T02:47:38;6.45;;;3.83;;
30378;SDS011;17168;49.164;9.060;2022-07-30T02:50:07;6.88;;;4.68;;
30378;SDS011;17168;49.164;9.060;2022-07-30T02:52:35;4.80;;;4.30;;
30378;SDS011;17168;49.164;9.060;2022-07-30T02:55:05;7.10;;;4.53;;
30378;SDS011;17168;49.164;9.060;2022-07-30T02:57:33;6.70;;;5.00;;
30378;SDS011;17168;49.164;9.060;2022-07-30T03:00:08;7.63;;;5.60;;
30378;SDS011;17168;49.164;9.060;2022-07-30T03:02:39;9.48;;;5.40;;
30378;SDS011;17168;49.164;9.060;2022-07-30T03:05:09;5.80;;;4.88;;
30378;SDS011;17168;49.164;9.060;2022-07-30T03:07:38;10.43;;;5.22;;
30378;SDS011;17168;49.164;9.060;2022-07-30T03:10:06;9.25;;;5.20;;
30378;SDS011;17168;49.164;9.060;2022-07-30T03:12:34;9.45;;;5.43;;
30378;SDS011;17168;49.164;9.060;2022-07-30T03:15:03;7.25;;;5.22;;
30378;SDS011;17168;49.164;9.060;2022-07-30T03:17:31;11.82;;;5.78;;
30378;SDS011;17168;49.164;9.060;2022-07-30T03:20:06;8.10;;;5.57;;
30378;SDS011;17168;49.164;9.060;2022-07-30T03:22:36;12.15;;;5.80;;
30378;SDS011;17168;49.164;9.060;2022-07-30T03:25:08;8.40;;;5.77;;
30378;SDS011;17168;49.164;9.060;2022-07-30T03:27:36;11.05;;;5.68;;
30378;SDS011;17168;49.164;9.060;2022-07-30T03:30:03;8.10;;;5.95;;
30378;SDS011;17168;49.164;9.060;2022-07-30T03:32:31;14.25;;;5.53;;
30378;SDS011;17168;49.164;9.060;2022-07-30T03:35:01;9.07;;;5.50;;
30378;SDS011;17168;49.164;9.060;2022-07-30T03:37:35;8.77;;;5.15;;
30378;SDS011;17168;49.164;9.060;2022-07-30T03:40:05;10.00;;;5.30;;
30378;SDS011;17168;49.164;9.060;2022-07-30T03:42:32;9.90;;;5.65;;
30378;SDS011;17168;49.164;9.060;2022-07-30T03:45:02;9.88;;;5.18;;
30378;SDS011;17168;49.164;9.060;2022-07-30T03:47:31;10.68;;;4.88;;
30378;SDS011;17168;49.164;9.060;2022-07-30T03:50:02;7.97;;;5.43;;
30378;SDS011;17168;49.164;9.060;2022-07-30T03:52:30;9.82;;;5.18;;
30378;SDS011;17168;49.164;9.060;2022-07-30T03:55:00;11.02;;;5.15;;
30378;SDS011;17168;49.164;9.060;2022-07-30T03:57:27;14.35;;;5.90;;
30378;SDS011;17168;49.164;9.060;2022-07-30T03:59:55;7.35;;;5.28;;
30378;SDS011;17168;49.164;9.060;2022-07-30T04:02:21;9.90;;;5.40;;
30378;SDS011;17168;49.164;9.060;2022-07-30T04:04:49;8.77;;;5.40;;
30378;SDS011;17168;49.164;9.060;2022-07-30T04:07:16;8.05;;;4.88;;
30378;SDS011;17168;49.164;9.060;2022-07-30T04:09:43;7.30;;;5.20;;
30378;SDS011;17168;49.164;9.060;2022-07-30T04:12:11;6.30;;;4.70;;
30378;SDS011;17168;49.164;9.060;2022-07-30T04:14:39;8.07;;;4.97;;
30378;SDS011;17168;49.164;9.060;2022-07-30T04:17:09;6.80;;;4.97;;
30378;SDS011;17168;49.164;9.060;2022-07-30T04:19:39;9.70;;;5.00;;
30378;SDS011;17168;49.164;9.060;2022-07-30T04:22:10;11.48;;;5.07;;
30378;SDS011;17168;49.164;9.060;2022-07-30T04:24:38;6.78;;;4.75;;
30378;SDS011;17168;49.164;9.060;2022-07-30T04:27:06;10.75;;;5.72;;
30378;SDS011;17168;49.164;9.060;2022-07-30T04:29:34;12.10;;;5.18;;
30378;SDS011;17168;49.164;9.060;2022-07-30T04:32:01;10.27;;;5.32;;
30378;SDS011;17168;49.164;9.060;2022-07-30T04:34:28;9.48;;;5.53;;
30378;SDS011;17168;49.164;9.060;2022-07-30T04:36:55;10.60;;;5.45;;
30378;SDS011;17168;49.164;9.060;2022-07-30T04:39:23;7.63;;;4.80;;
30378;SDS011;17168;49.164;9.060;2022-07-30T04:41:50;8.57;;;5.18;;
30378;SDS011;17168;49.164;9.060;2022-07-30T04:44:17;7.07;;;5.40;;
30378;SDS011;17168;49.164;9.060;2022-07-30T04:46:46;13.38;;;5.38;;
30378;SDS011;17168;49.164;9.060;2022-07-30T04:49:13;7.25;;;4.47;;
30378;SDS011;17168;49.164;9.060;2022-07-30T04:51:41;10.52;;;4.97;;
30378;SDS011;17168;49.164;9.060;2022-07-30T04:54:09;9.13;;;4.80;;
30378;SDS011;17168;49.164;9.060;2022-07-30T04:56:41;10.50;;;5.00;;
30378;SDS011;17168;49.164;9.060;2022-07-30T04:59:19;12.75;;;4.90;;
30378;SDS011;17168;49.164;9.060;2022-07-30T05:01:51;5.72;;;4.50;;
30378;SDS011;17168;49.164;9.060;2022-07-30T05:04:22;13.95;;;5.00;;
30378;SDS011;17168;49.164;9.060;2022-07-30T05:06:50;14.18;;;4.97;;
30378;SDS011;17168;49.164;9.060;2022-07-30T05:09:17;10.75;;;4.93;;
30378;SDS011;17168;49.164;9.060;2022-07-30T05:11:48;9.00;;;4.70;;
30378;SDS011;17168;49.164;9.060;2022-07-30T05:14:16;12.45;;;5.07;;
30378;SDS011;17168;49.164;9.060;2022-07-30T05:16:43;12.23;;;4.70;;
30378;SDS011;17168;49.164;9.060;2022-07-30T05:19:11;10.45;;;4.75;;
30378;SDS011;17168;49.164;9.060;2022-07-30T05:21:38;8.50;;;4.80;;
30378;SDS011;17168;49.164;9.060;2022-07-30T05:24:05;11.55;;;5.18;;
30378;SDS011;17168;49.164;9.060;2022-07-30T05:26:32;16.08;;;5.38;;
30378;SDS011;17168;49.164;9.060;2022-07-30T05:28:59;13.75;;;4.80;;
30378;SDS011;17168;49.164;9.060;2022-07-30T05:31:32;7.22;;;4.72;;
30378;SDS011;17168;49.164;9.060;2022-07-30T05:33:59;12.80;;;5.10;;
30378;SDS011;17168;49.164;9.060;2022-07-30T05:36:30;13.50;;;5.18;;
30378;SDS011;17168;49.164;9.060;2022-07-30T05:38:57;12.35;;;5.20;;
30378;SDS011;17168;49.164;9.060;2022-07-30T05:41:23;11.73;;;4.50;;
30378;SDS011;17168;49.164;9.060;2022-07-30T05:43:58;9.93;;;5.20;;
30378;SDS011;17168;49.164;9.060;2022-07-30T05:46:25;13.98;;;5.35;;
30378;SDS011;17168;49.164;9.060;2022-07-30T05:48:52;11.82;;;4.75;;
30378;SDS011;17168;49.164;9.060;2022-07-30T05:51:19;10.30;;;5.13;;
30378;SDS011;17168;49.164;9.060;2022-07-30T05:53:48;25.80;;;5.70;;
30378;SDS011;17168;49.164;9.060;2022-07-30T05:56:15;11.07;;;5.38;;
30378;SDS011;17168;49.164;9.060;2022-07-30T05:58:42;11.68;;;4.93;;
30378;SDS011;17168;49.164;9.060;2022-07-30T06:01:09;10.55;;;5.13;;
30378;SDS011;17168;49.164;9.060;2022-07-30T06:03:37;17.05;;;4.82;;
30378;SDS011;17168;49.164;9.060;2022-07-30T06:06:04;15.70;;;5.07;;
30378;SDS011;17168;49.164;9.060;2022-07-30T06:08:32;10.70;;;5.32;;
30378;SDS011;17168;49.164;9.060;2022-07-30T06:11:00;12.07;;;5.25;;
30378;SDS011;17168;49.164;9.060;2022-07-30T06:13:27;11.95;;;5.13;;
30378;SDS011;17168;49.164;9.060;2022-07-30T06:15:54;14.73;;;5.60;;
30378;SDS011;17168;49.164;9.060;2022-07-30T06:18:21;11.57;;;5.18;;
30378;SDS011;17168;49.164;9.060;2022-07-30T06:20:48;14.00;;;5.20;;
30378;SDS011;17168;49.164;9.060;2022-07-30T06:23:16;12.88;;;5.60;;
30378;SDS011;17168;49.164;9.060;2022-07-30T06:25:43;14.75;;;5.53;;
30378;SDS011;17168;49.164;9.060;2022-07-30T06:28:12;11.63;;;5.25;;
30378;SDS011;17168;49.164;9.060;2022-07-30T06:30:59;11.45;;;5.30;;
30378;SDS011;17168;49.164;9.060;2022-07-30T06:33:26;14.45;;;5.45;;
30378;SDS011;17168;49.164;9.060;2022-07-30T06:35:53;13.65;;;5.47;;
30378;SDS011;17168;49.164;9.060;2022-07-30T06:38:20;20.90;;;5.82;;
30378;SDS011;17168;49.164;9.060;2022-07-30T06:40:47;26.60;;;5.53;;
30378;SDS011;17168;49.164;9.060;2022-07-30T06:43:15;17.10;;;5.82;;
30378;SDS011;17168;49.164;9.060;2022-07-30T06:45:44;14.50;;;5.97;;
30378;SDS011;17168;49.164;9.060;2022-07-30T06:48:11;15.70;;;5.50;;
30378;SDS011;17168;49.164;9.060;2022-07-30T06:50:37;13.00;;;5.22;;
30378;SDS011;17168;49.164;9.060;2022-07-30T06:53:06;21.70;;;5.80;;
30378;SDS011;17168;49.164;9.060;2022-07-30T06:55:33;24.92;;;6.28;;
30378;SDS011;17168;49.164;9.060;2022-07-30T06:58:00;14.05;;;5.00;;
30378;SDS011;17168;49.164;9.060;2022-07-30T07:00:28;24.15;;;4.68;;
30378;SDS011;17168;49.164;9.060;2022-07-30T07:02:55;13.15;;;5.47;;
30378;SDS011;17168;49.164;9.060;2022-07-30T07:05:22;12.93;;;4.55;;
30378;SDS011;17168;49.164;9.060;2022-07-30T07:07:49;19.92;;;5.50;;
30378;SDS011;17168;49.164;9.060;2022-07-30T07:10:24;18.00;;;5.88;;
30378;SDS011;17168;49.164;9.060;2022-07-30T07:12:51;21.02;;;6.05;;
30378;SDS011;17168;49.164;9.060;2022-07-30T07:15:18;14.40;;;4.85;;
30378;SDS011;17168;49.164;9.060;2022-07-30T07:18:04;28.42;;;12.95;;
30378;SDS011;17168;49.164;9.060;2022-07-30T07:20:31;11.30;;;5.90;;
30378;SDS011;17168;49.164;9.060;2022-07-30T07:22:59;13.90;;;4.93;;
30378;SDS011;17168;49.164;9.060;2022-07-30T07:25:31;7.72;;;4.80;;
30378;SDS011;17168;49.164;9.060;2022-07-30T07:27:58;7.78;;;4.60;;
30378;SDS011;17168;49.164;9.060;2022-07-30T07:30:38;13.65;;;4.57;;
30378;SDS011;17168;49.164;9.060;2022-07-30T07:33:06;14.50;;;5.38;;
30378;SDS011;17168;49.164;9.060;2022-07-30T07:35:33;11.73;;;4.82;;
30378;SDS011;17168;49.164;9.060;2022-07-30T07:38:15;11.90;;;5.30;;
30378;SDS011;17168;49.164;9.060;2022-07-30T07:40:42;8.55;;;4.63;;
30378;SDS011;17168;49.164;9.060;2022-07-30T07:43:09;12.68;;;5.38;;
30378;SDS011;17168;49.164;9.060;2022-07-30T07:45:35;8.38;;;4.30;;
30378;SDS011;17168;49.164;9.060;2022-07-30T07:48:03;10.30;;;5.00;;
30378;SDS011;17168;49.164;9.060;2022-07-30T07:50:32;10.00;;;5.25;;
30378;SDS011;17168;49.164;9.060;2022-07-30T07:52:59;8.45;;;5.15;;
30378;SDS011;17168;49.164;9.060;2022-07-30T07:55:26;7.90;;;5.00;;
30378;SDS011;17168;49.164;9.060;2022-07-30T07:57:56;9.93;;;4.57;;
30378;SDS011;17168;49.164;9.060;2022-07-30T08:00:23;15.65;;;5.55;;
30378;SDS011;17168;49.164;9.060;2022-07-30T08:02:50;9.45;;;4.90;;
30378;SDS011;17168;49.164;9.060;2022-07-30T08:05:17;12.45;;;4.88;;
30378;SDS011;17168;49.164;9.060;2022-07-30T08:07:45;10.77;;;5.28;;
30378;SDS011;17168;49.164;9.060;2022-07-30T08:10:12;15.02;;;5.18;;
30378;SDS011;17168;49.164;9.060;2022-07-30T08:12:41;11.40;;;6.13;;
30378;SDS011;17168;49.164;9.060;2022-07-30T08:15:08;12.27;;;5.07;;
30378;SDS011;17168;49.164;9.060;2022-07-30T08:17:38;12.38;;;5.00;;
30378;SDS011;17168;49.164;9.060;2022-07-30T08:20:05;11.45;;;4.88;;
30378;SDS011;17168;49.164;9.060;2022-07-30T08:22:33;8.30;;;4.50;;
30378;SDS011;17168;49.164;9.060;2022-07-30T08:25:01;12.98;;;5.20;;
30378;SDS011;17168;49.164;9.060;2022-07-30T08:27:29;8.68;;;4.72;;
30378;SDS011;17168;49.164;9.060;2022-07-30T08:29:56;17.65;;;5.72;;
30378;SDS011;17168;49.164;9.060;2022-07-30T08:32:23;7.55;;;5.00;;
30378;SDS011;17168;49.164;9.060;2022-07-30T08:34:50;9.98;;;4.32;;
30378;SDS011;17168;49.164;9.060;2022-07-30T08:37:17;8.10;;;4.00;;
30378;SDS011;17168;49.164;9.060;2022-07-30T08:39:44;8.40;;;4.93;;
30378;SDS011;17168;49.164;9.060;2022-07-30T08:42:13;10.70;;;4.57;;
30378;SDS011;17168;49.164;9.060;2022-07-30T08:44:40;12.45;;;4.70;;
30378;SDS011;17168;49.164;9.060;2022-07-30T08:47:09;9.98;;;5.07;;
30378;SDS011;17168;49.164;9.060;2022-07-30T08:49:41;6.80;;;4.13;;
30378;SDS011;17168;49.164;9.060;2022-07-30T08:52:09;19.20;;;9.45;;
30378;SDS011;17168;49.164;9.060;2022-07-30T08:54:37;10.70;;;4.18;;
30378;SDS011;17168;49.164;9.060;2022-07-30T08:57:04;25.23;;;5.95;;
30378;SDS011;17168;49.164;9.060;2022-07-30T08:59:33;15.00;;;5.10;;
30378;SDS011;17168;49.164;9.060;2022-07-30T09:02:20;10.68;;;4.60;;
30378;SDS011;17168;49.164;9.060;2022-07-30T09:04:54;12.98;;;4.75;;
30378;SDS011;17168;49.164;9.060;2022-07-30T09:07:21;7.07;;;3.65;;
30378;SDS011;17168;49.164;9.060;2022-07-30T09:09:48;10.80;;;4.30;;
30378;SDS011;17168;49.164;9.060;2022-07-30T09:12:31;4.85;;;3.47;;
30378;SDS011;17168;49.164;9.060;2022-07-30T09:15:04;10.23;;;4.38;;
30378;SDS011;17168;49.164;9.060;2022-07-30T09:17:44;10.40;;;4.07;;
30378;SDS011;17168;49.164;9.060;2022-07-30T09:20:12;7.15;;;3.78;;
30378;SDS011;17168;49.164;9.060;2022-07-30T09:22:43;6.65;;;3.85;;
30378;SDS011;17168;49.164;9.060;2022-07-30T09:25:11;6.50;;;4.28;;
30378;SDS011;17168;49.164;9.060;2022-07-30T09:27:45;8.77;;;4.10;;
30378;SDS011;17168;49.164;9.060;2022-07-30T09:30:15;6.93;;;3.20;;
30378;SDS011;17168;49.164;9.060;2022-07-30T09:32:49;10.27;;;4.00;;
30378;SDS011;17168;49.164;9.060;2022-07-30T09:35:17;9.77;;;4.10;;
30378;SDS011;17168;49.164;9.060;2022-07-30T09:37:45;12.38;;;4.43;;
30378;SDS011;17168;49.164;9.060;2022-07-30T09:40:13;5.47;;;3.33;;
30378;SDS011;17168;49.164;9.060;2022-07-30T09:42:42;9.68;;;4.18;;
30378;SDS011;17168;49.164;9.060;2022-07-30T09:45:10;7.00;;;3.78;;
30378;SDS011;17168;49.164;9.060;2022-07-30T09:47:40;5.90;;;3.90;;
30378;SDS011;17168;49.164;9.060;2022-07-30T09:50:09;9.50;;;4.00;;
30378;SDS011;17168;49.164;9.060;2022-07-30T09:52:43;7.60;;;3.58;;
30378;SDS011;17168;49.164;9.060;2022-07-30T09:55:14;12.23;;;3.55;;
30378;SDS011;17168;49.164;9.060;2022-07-30T09:57:56;10.30;;;3.40;;
30378;SDS011;17168;49.164;9.060;2022-07-30T10:00:27;7.30;;;3.35;;
30378;SDS011;17168;49.164;9.060;2022-07-30T10:02:57;13.07;;;3.90;;
30378;SDS011;17168;49.164;9.060;2022-07-30T10:05:37;5.53;;;3.42;;
30378;SDS011;17168;49.164;9.060;2022-07-30T10:08:04;9.13;;;3.30;;
30378;SDS011;17168;49.164;9.060;2022-07-30T10:10:41;10.55;;;3.67;;
30378;SDS011;17168;49.164;9.060;2022-07-30T10:13:14;18.27;;;3.60;;
30378;SDS011;17168;49.164;9.060;2022-07-30T10:15:46;9.23;;;3.90;;
30378;SDS011;17168;49.164;9.060;2022-07-30T10:18:16;10.93;;;3.20;;
30378;SDS011;17168;49.164;9.060;2022-07-30T10:20:43;8.30;;;3.00;;
30378;SDS011;17168;49.164;9.060;2022-07-30T10:23:11;9.25;;;3.28;;
30378;SDS011;17168;49.164;9.060;2022-07-30T10:25:41;7.55;;;3.20;;
30378;SDS011;17168;49.164;9.060;2022-07-30T10:28:20;7.60;;;3.13;;
30378;SDS011;17168;49.164;9.060;2022-07-30T10:30:49;6.50;;;2.85;;
30378;SDS011;17168;49.164;9.060;2022-07-30T10:33:17;5.78;;;3.17;;
30378;SDS011;17168;49.164;9.060;2022-07-30T10:36:03;8.75;;;2.80;;
30378;SDS011;17168;49.164;9.060;2022-07-30T10:38:30;9.18;;;3.90;;
30378;SDS011;17168;49.164;9.060;2022-07-30T10:41:07;11.27;;;4.35;;
30378;SDS011;17168;49.164;9.060;2022-07-30T10:43:48;9.07;;;2.92;;
30378;SDS011;17168;49.164;9.060;2022-07-30T10:46:28;7.78;;;2.70;;
30378;SDS011;17168;49.164;9.060;2022-07-30T10:49:10;5.90;;;2.78;;
30378;SDS011;17168;49.164;9.060;2022-07-30T10:51:45;7.82;;;2.63;;
30378;SDS011;17168;49.164;9.060;2022-07-30T10:54:33;9.52;;;3.13;;
30378;SDS011;17168;49.164;9.060;2022-07-30T10:57:09;11.30;;;2.90;;
30378;SDS011;17168;49.164;9.060;2022-07-30T11:02:41;5.05;;;2.40;;
30378;SDS011;17168;49.164;9.060;2022-07-30T11:05:42;5.95;;;2.30;;
30378;SDS011;17168;49.164;9.060;2022-07-30T11:11:02;6.57;;;2.80;;
30378;SDS011;17168;49.164;9.060;2022-07-30T11:14:16;4.95;;;2.90;;
30378;SDS011;17168;49.164;9.060;2022-07-30T11:16:58;7.47;;;2.75;;
30378;SDS011;17168;49.164;9.060;2022-07-30T11:19:26;8.57;;;3.13;;
30378;SDS011;17168;49.164;9.060;2022-07-30T11:22:25;8.18;;;3.33;;
30378;SDS011;17168;49.164;9.060;2022-07-30T11:24:55;5.28;;;2.65;;
30378;SDS011;17168;49.164;9.060;2022-07-30T11:27:38;9.82;;;3.08;;
30378;SDS011;17168;49.164;9.060;2022-07-30T11:33:20;6.50;;;2.60;;
30378;SDS011;17168;49.164;9.060;2022-07-30T11:36:05;3.47;;;2.67;;
30378;SDS011;17168;49.164;9.060;2022-07-30T11:38:50;5.00;;;2.58;;
30378;SDS011;17168;49.164;9.060;2022-07-30T11:41:18;8.95;;;2.80;;
30378;SDS011;17168;49.164;9.060;2022-07-30T11:43:45;6.10;;;2.65;;
30378;SDS011;17168;49.164;9.060;2022-07-30T11:46:12;7.82;;;2.78;;
30378;SDS011;17168;49.164;9.060;2022-07-30T11:48:42;6.30;;;2.42;;
30378;SDS011;17168;49.164;9.060;2022-07-30T11:51:20;9.70;;;2.55;;
30378;SDS011;17168;49.164;9.060;2022-07-30T11:53:59;9.95;;;2.60;;
30378;SDS011;17168;49.164;9.060;2022-07-30T11:56:28;5.90;;;2.50;;
30378;SDS011;17168;49.164;9.060;2022-07-30T11:58:59;6.72;;;2.28;;
30378;SDS011;17168;49.164;9.060;2022-07-30T12:01:27;24.15;;;2.60;;
30378;SDS011;17168;49.164;9.060;2022-07-30T12:03:55;10.95;;;2.08;;
30378;SDS011;17168;49.164;9.060;2022-07-30T12:06:22;5.93;;;2.40;;
30378;SDS011;17168;49.164;9.060;2022-07-30T12:08:50;6.13;;;2.38;;
30378;SDS011;17168;49.164;9.060;2022-07-30T12:11:25;6.47;;;2.53;;
30378;SDS011;17168;49.164;9.060;2022-07-30T12:13:58;6.97;;;2.42;;
30378;SDS011;17168;49.164;9.060;2022-07-30T12:16:27;6.38;;;2.60;;
30378;SDS011;17168;49.164;9.060;2022-07-30T12:18:59;5.28;;;2.15;;
30378;SDS011;17168;49.164;9.060;2022-07-30T12:21:27;7.35;;;2.58;;
30378;SDS011;17168;49.164;9.060;2022-07-30T12:23:55;7.15;;;2.58;;
30378;SDS011;17168;49.164;9.060;2022-07-30T12:26:28;8.05;;;2.40;;
30378;SDS011;17168;49.164;9.060;2022-07-30T12:28:57;3.72;;;2.00;;
30378;SDS011;17168;49.164;9.060;2022-07-30T12:31:26;8.80;;;2.33;;
30378;SDS011;17168;49.164;9.060;2022-07-30T12:33:53;6.00;;;2.42;;
30378;SDS011;17168;49.164;9.060;2022-07-30T12:36:25;10.05;;;2.40;;
30378;SDS011;17168;49.164;9.060;2022-07-30T12:38:54;23.65;;;2.85;;
30378;SDS011;17168;49.164;9.060;2022-07-30T12:41:23;6.97;;;2.20;;
30378;SDS011;17168;49.164;9.060;2022-07-30T12:44:10;5.43;;;2.25;;
30378;SDS011;17168;49.164;9.060;2022-07-30T12:47:01;4.03;;;1.95;;
30378;SDS011;17168;49.164;9.060;2022-07-30T12:49:30;7.22;;;2.20;;
30378;SDS011;17168;49.164;9.060;2022-07-30T12:52:21;8.05;;;2.70;;
30378;SDS011;17168;49.164;9.060;2022-07-30T12:55:02;4.78;;;2.45;;
30378;SDS011;17168;49.164;9.060;2022-07-30T13:00:20;4.20;;;2.30;;
30378;SDS011;17168;49.164;9.060;2022-07-30T13:02:48;4.40;;;2.00;;
30378;SDS011;17168;49.164;9.060;2022-07-30T13:05:15;6.75;;;2.25;;
30378;SDS011;17168;49.164;9.060;2022-07-30T13:07:51;4.88;;;1.98;;
30378;SDS011;17168;49.164;9.060;2022-07-30T13:10:22;3.38;;;1.92;;
30378;SDS011;17168;49.164;9.060;2022-07-30T13:12:57;3.65;;;2.03;;
30378;SDS011;17168;49.164;9.060;2022-07-30T13:15:24;7.55;;;1.98;;
30378;SDS011;17168;49.164;9.060;2022-07-30T13:17:51;6.25;;;2.05;;
30378;SDS011;17168;49.164;9.060;2022-07-30T13:20:18;7.65;;;2.20;;
30378;SDS011;17168;49.164;9.060;2022-07-30T13:22:46;7.78;;;2.20;;
30378;SDS011;17168;49.164;9.060;2022-07-30T13:25:13;2.50;;;1.60;;
30378;SDS011;17168;49.164;9.060;2022-07-30T13:27:40;6.50;;;2.20;;
30378;SDS011;17168;49.164;9.060;2022-07-30T13:30:09;5.20;;;1.80;;
30378;SDS011;17168;49.164;9.060;2022-07-30T13:32:36;8.55;;;2.05;;
30378;SDS011;17168;49.164;9.060;2022-07-30T13:35:03;3.17;;;1.70;;
30378;SDS011;17168;49.164;9.060;2022-07-30T13:37:30;3.38;;;1.80;;
30378;SDS011;17168;49.164;9.060;2022-07-30T13:40:03;3.60;;;1.80;;
30378;SDS011;17168;49.164;9.060;2022-07-30T13:42:31;6.10;;;1.70;;
30378;SDS011;17168;49.164;9.060;2022-07-30T13:44:58;5.72;;;1.92;;
30378;SDS011;17168;49.164;9.060;2022-07-30T13:47:26;5.82;;;1.90;;
30378;SDS011;17168;49.164;9.060;2022-07-30T13:49:54;4.38;;;2.13;;
30378;SDS011;17168;49.164;9.060;2022-07-30T13:52:20;4.65;;;1.95;;
30378;SDS011;17168;49.164;9.060;2022-07-30T13:54:47;10.52;;;2.28;;
30378;SDS011;17168;49.164;9.060;2022-07-30T13:57:16;6.88;;;2.08;;
30378;SDS011;17168;49.164;9.060;2022-07-30T13:59:44;8.73;;;1.58;;
30378;SDS011;17168;49.164;9.060;2022-07-30T14:02:11;4.43;;;1.67;;
30378;SDS011;17168;49.164;9.060;2022-07-30T14:04:39;3.60;;;1.65;;
30378;SDS011;17168;49.164;9.060;2022-07-30T14:07:10;3.83;;;1.90;;
30378;SDS011;17168;49.164;9.060;2022-07-30T14:09:36;6.68;;;2.00;;
30378;SDS011;17168;49.164;9.060;2022-07-30T14:12:12;7.13;;;1.98;;
30378;SDS011;17168;49.164;9.060;2022-07-30T14:14:39;2.35;;;1.65;;
30378;SDS011;17168;49.164;9.060;2022-07-30T14:17:06;7.20;;;1.98;;
30378;SDS011;17168;49.164;9.060;2022-07-30T14:19:33;4.35;;;1.85;;
30378;SDS011;17168;49.164;9.060;2022-07-30T14:22:02;4.57;;;1.90;;
30378;SDS011;17168;49.164;9.060;2022-07-30T14:24:28;7.90;;;1.85;;
30378;SDS011;17168;49.164;9.060;2022-07-30T14:26:55;7.75;;;2.17;;
30378;SDS011;17168;49.164;9.060;2022-07-30T14:29:23;4.20;;;1.90;;
30378;SDS011;17168;49.164;9.060;2022-07-30T14:31:51;4.10;;;1.85;;
30378;SDS011;17168;49.164;9.060;2022-07-30T14:34:18;6.07;;;2.80;;
30378;SDS011;17168;49.164;9.060;2022-07-30T14:36:45;3.28;;;1.90;;
30378;SDS011;17168;49.164;9.060;2022-07-30T14:39:13;4.20;;;1.88;;
30378;SDS011;17168;49.164;9.060;2022-07-30T14:41:40;2.55;;;1.70;;
30378;SDS011;17168;49.164;9.060;2022-07-30T14:44:08;5.03;;;1.70;;
30378;SDS011;17168;49.164;9.060;2022-07-30T14:46:37;6.97;;;1.90;;
30378;SDS011;17168;49.164;9.060;2022-07-30T14:49:24;4.13;;;1.98;;
30378;SDS011;17168;49.164;9.060;2022-07-30T14:51:52;3.47;;;1.67;;
30378;SDS011;17168;49.164;9.060;2022-07-30T14:54:20;16.13;;;2.17;;
30378;SDS011;17168;49.164;9.060;2022-07-30T14:56:47;8.93;;;2.00;;
30378;SDS011;17168;49.164;9.060;2022-07-30T14:59:20;3.22;;;1.90;;
30378;SDS011;17168;49.164;9.060;2022-07-30T15:01:47;3.80;;;1.80;;
30378;SDS011;17168;49.164;9.060;2022-07-30T15:04:14;6.35;;;1.90;;
30378;SDS011;17168;49.164;9.060;2022-07-30T15:06:41;7.43;;;2.15;;
30378;SDS011;17168;49.164;9.060;2022-07-30T15:09:08;4.15;;;1.60;;
30378;SDS011;17168;49.164;9.060;2022-07-30T15:11:36;3.05;;;1.60;;